Time;durP1;ratioP1;P1;durP2;ratioP2;P2;SDS_P1;SDS_P2;PMS_P1;PMS_P2;Temp;Humidity;BMP_temperature;BMP_pressure;BME280_temperature;BME280_humidity;BME280_pressure;Samples;Min_cycle;Max_cycle;Signal;HPM_P1;HPM_P2
2021/12/14 00:00:56;;;;;;;15.50;13.67;;;9.00;99.90;;;;;;10394763;28;20225;-84
2021/12/14 00:05:58;;;;;;;14.07;12.73;;;9.00;99.90;;;;;;10413281;28;20534;-84
2021/12/14 00:11:29;;;;;;;12.67;11.40;;;9.00;99.90;;;;;;10398718;28;20218;-84
2021/12/14 00:16:32;;;;;;;17.83;13.60;;;9.00;99.90;;;;;;10408446;28;20256;-83
2021/12/14 00:21:35;;;;;;;13.40;11.97;;;8.90;99.90;;;;;;10389991;28;20276;-83
2021/12/14 00:26:42;;;;;;;13.50;12.10;;;8.80;99.90;;;;;;10387347;28;20269;-84
2021/12/14 00:31:46;;;;;;;13.70;12.30;;;8.80;99.90;;;;;;10405257;28;20218;-83
2021/12/14 00:36:49;;;;;;;15.07;13.27;;;8.80;99.90;;;;;;10386202;28;20629;-83
2021/12/14 00:41:53;;;;;;;14.67;13.17;;;8.70;99.90;;;;;;10418627;28;20205;-83
2021/12/14 00:46:56;;;;;;;16.40;13.70;;;8.70;99.90;;;;;;10409265;28;20670;-83
2021/12/14 00:51:59;;;;;;;13.60;12.17;;;8.60;99.90;;;;;;10402022;28;20214;-84
2021/12/14 00:57:01;;;;;;;14.30;12.43;;;8.60;99.90;;;;;;10404454;28;20198;-83
2021/12/14 01:02:09;;;;;;;14.07;12.33;;;8.70;99.90;;;;;;10401635;28;20588;-83
2021/12/14 01:07:14;;;;;;;14.97;13.20;;;8.70;99.90;;;;;;10393456;28;20217;-83
2021/12/14 01:12:28;;;;;;;12.13;10.70;;;8.70;99.90;;;;;;10402703;28;20264;-83
2021/12/14 01:17:42;;;;;;;11.97;10.73;;;8.60;99.90;;;;;;10401017;28;20232;-84
2021/12/14 01:22:46;;;;;;;13.60;11.33;;;8.60;99.90;;;;;;10402484;28;20602;-83
2021/12/14 01:27:55;;;;;;;12.83;11.53;;;8.60;99.90;;;;;;10400900;28;20218;-83
2021/12/14 01:33:03;;;;;;;14.87;13.00;;;8.60;99.90;;;;;;10401771;28;20682;-83
2021/12/14 01:38:17;;;;;;;13.67;11.00;;;8.60;99.90;;;;;;10402139;28;20252;-84
2021/12/14 01:43:23;;;;;;;12.63;10.87;;;8.70;99.90;;;;;;10414835;28;20232;-83
2021/12/14 01:48:27;;;;;;;13.67;10.83;;;8.70;99.90;;;;;;10406665;28;20224;-83
2021/12/14 01:53:44;;;;;;;11.73;10.50;;;8.70;99.90;;;;;;10401689;28;20189;-82
2021/12/14 01:58:49;;;;;;;16.57;11.47;;;8.70;99.90;;;;;;10419493;28;20580;-84
2021/12/14 02:03:55;;;;;;;11.60;10.40;;;8.70;99.90;;;;;;10409580;28;20252;-83
2021/12/14 02:09:01;;;;;;;13.47;11.00;;;8.70;99.90;;;;;;10386758;28;20214;-83
2021/12/14 02:14:05;;;;;;;14.77;11.13;;;8.70;99.90;;;;;;10387543;28;20284;-83
2021/12/14 02:19:13;;;;;;;14.57;12.03;;;8.70;99.90;;;;;;10390465;28;20214;-83
2021/12/14 02:24:20;;;;;;;12.90;11.50;;;8.70;99.90;;;;;;10405050;28;20264;-83
2021/12/14 02:29:25;;;;;;;12.73;11.40;;;8.80;99.90;;;;;;10404086;28;20206;-83
2021/12/14 02:34:27;;;;;;;12.27;10.97;;;8.80;99.90;;;;;;10387533;28;20570;-83
2021/12/14 02:39:47;;;;;;;11.17;9.70;;;8.60;99.90;;;;;;10391074;28;20253;-83
2021/12/14 02:44:54;;;;;;;12.60;11.30;;;8.60;99.90;;;;;;10408918;28;20221;-84
2021/12/14 02:49:56;;;;;;;12.50;11.20;;;8.50;99.90;;;;;;10387809;28;20214;-83
2021/12/14 02:55:06;;;;;;;14.23;11.27;;;8.60;99.90;;;;;;10393484;28;20670;-83
2021/12/14 03:00:14;;;;;;;14.30;11.43;;;8.40;99.90;;;;;;10348323;28;20223;-83
2021/12/14 03:05:20;;;;;;;13.00;11.30;;;8.40;99.90;;;;;;10405313;28;20201;-83
2021/12/14 03:10:38;;;;;;;12.90;10.13;;;8.40;99.90;;;;;;10405555;28;20737;-83
2021/12/14 03:15:47;;;;;;;13.93;11.50;;;8.40;99.90;;;;;;10424624;28;20197;-83
2021/12/14 03:20:54;;;;;;;13.23;10.70;;;8.50;99.90;;;;;;10400802;28;20243;-84
2021/12/14 03:26:01;;;;;;;11.60;10.33;;;8.50;99.90;;;;;;10389350;28;20236;-83
2021/12/14 03:31:22;;;;;;;14.20;10.97;;;8.50;99.90;;;;;;10389917;28;20210;-84
2021/12/14 03:36:27;;;;;;;12.63;10.07;;;8.50;99.90;;;;;;10407140;28;20209;-83
2021/12/14 03:41:34;;;;;;;13.40;9.63;;;8.50;99.90;;;;;;10392806;28;20636;-84
2021/12/14 03:46:45;;;;;;;10.87;9.73;;;8.40;99.90;;;;;;10409450;28;20182;-83
2021/12/14 03:51:47;;;;;;;12.73;10.50;;;8.30;99.90;;;;;;10392233;28;20224;-82
2021/12/14 03:56:52;;;;;;;13.03;10.10;;;8.30;99.90;;;;;;10388898;28;20677;-83
2021/12/14 04:02:03;;;;;;;13.47;10.33;;;8.30;99.90;;;;;;10422994;28;20280;-84
2021/12/14 04:07:10;;;;;;;13.07;10.00;;;8.30;99.90;;;;;;10405931;28;20198;-83
2021/12/14 04:12:17;;;;;;;13.70;10.90;;;8.30;99.90;;;;;;10406778;28;20194;-83
2021/12/14 04:17:21;;;;;;;15.13;10.93;;;8.30;99.90;;;;;;10387169;28;20206;-83
2021/12/14 04:22:27;;;;;;;13.63;10.80;;;8.30;99.90;;;;;;10405459;28;20275;-83
2021/12/14 04:27:34;;;;;;;12.53;10.47;;;8.30;99.90;;;;;;10413130;28;20257;-83
2021/12/14 04:32:38;;;;;;;14.13;11.00;;;8.30;99.90;;;;;;10406108;28;20198;-83
2021/12/14 04:37:42;;;;;;;14.07;11.00;;;8.30;99.90;;;;;;10405748;28;20240;-84
2021/12/14 04:53:41;;;;;;;17.27;13.40;;;8.30;99.90;;;;;;10392119;28;20273;-84
2021/12/14 04:58:53;;;;;;;17.50;12.90;;;8.20;99.90;;;;;;10408263;28;20689;-83
2021/12/14 05:03:59;;;;;;;15.10;12.97;;;8.10;99.90;;;;;;10391337;28;20190;-84
2021/12/14 05:14:41;;;;;;;18.07;11.23;;;8.10;99.90;;;;;;10401058;28;20204;-83
2021/12/14 05:19:47;;;;;;;13.57;11.57;;;8.00;99.90;;;;;;10426485;28;20217;-83
2021/12/14 05:24:52;;;;;;;12.57;10.50;;;8.00;99.90;;;;;;10405769;28;20701;-83
2021/12/14 05:30:06;;;;;;;12.87;11.03;;;8.00;99.90;;;;;;10389710;28;20260;-82
2021/12/14 05:35:15;;;;;;;12.93;10.17;;;8.00;99.90;;;;;;10394543;28;20202;-82
2021/12/14 05:40:37;;;;;;;11.80;10.43;;;8.10;99.90;;;;;;10389518;28;20222;-82
2021/12/14 05:45:46;;;;;;;11.37;9.10;;;8.10;99.90;;;;;;10389786;28;20225;-81
2021/12/14 05:50:55;;;;;;;9.43;8.30;;;8.20;99.90;;;;;;10461683;23;20232;-82
2021/12/14 05:55:59;;;;;;;11.37;9.50;;;8.30;99.90;;;;;;10464051;28;20558;-81
2021/12/14 06:01:06;;;;;;;9.17;8.17;;;8.30;99.90;;;;;;10501026;28;20216;-81
2021/12/14 06:06:16;;;;;;;10.87;8.80;;;8.40;99.90;;;;;;10471424;28;20202;-82
2021/12/14 06:11:22;;;;;;;10.47;8.40;;;8.40;99.90;;;;;;10488238;28;20222;-80
2021/12/14 06:16:29;;;;;;;9.83;7.53;;;8.50;99.90;;;;;;10464279;28;20197;-79
2021/12/14 06:21:32;;;;;;;8.67;7.70;;;8.50;99.90;;;;;;10456677;28;20228;-80
2021/12/14 06:26:37;;;;;;;10.80;9.63;;;8.50;99.90;;;;;;10450591;28;20204;-78
2021/12/14 06:31:42;;;;;;;9.10;8.20;;;8.40;99.90;;;;;;10465770;28;20213;-79
2021/12/14 06:37:28;;;;;;;10.37;9.30;;;8.50;99.90;;;;;;10482980;28;20207;-80
2021/12/14 06:42:31;;;;;;;8.87;7.97;;;8.40;99.90;;;;;;10482516;28;20228;-79
2021/12/14 06:47:36;;;;;;;7.30;6.60;;;8.40;99.90;;;;;;10467108;28;20261;-80
2021/12/14 06:52:39;;;;;;;8.07;7.37;;;8.40;99.90;;;;;;10467895;28;20222;-79
2021/12/14 06:58:15;;;;;;;8.60;7.90;;;8.30;99.90;;;;;;10468551;28;20209;-80
2021/12/14 07:03:19;;;;;;;8.00;7.20;;;8.20;99.90;;;;;;10458583;28;20231;-80
2021/12/14 07:08:27;;;;;;;7.47;6.87;;;8.30;99.90;;;;;;10477687;28;20753;-79
2021/12/14 07:13:36;;;;;;;7.00;6.40;;;8.20;99.90;;;;;;10470206;28;20224;-80
2021/12/14 07:18:42;;;;;;;6.83;6.23;;;8.20;99.90;;;;;;10467287;28;20227;-80
2021/12/14 07:23:44;;;;;;;7.37;6.67;;;8.10;99.90;;;;;;10482986;28;20200;-80
2021/12/14 07:28:47;;;;;;;7.67;7.07;;;8.00;99.90;;;;;;10483994;28;20323;-79
2021/12/14 07:33:56;;;;;;;7.00;6.40;;;7.90;99.90;;;;;;10466993;28;20239;-80
2021/12/14 07:39:00;;;;;;;6.73;6.13;;;7.90;99.90;;;;;;10484181;28;20685;-80
2021/12/14 07:44:05;;;;;;;7.07;6.47;;;7.90;99.90;;;;;;10502183;28;20235;-80
2021/12/14 07:49:18;;;;;;;6.40;5.80;;;7.90;99.90;;;;;;10482016;28;20266;-79
2021/12/14 07:54:24;;;;;;;6.87;6.27;;;7.90;99.90;;;;;;10492717;28;20197;-80
2021/12/14 07:59:30;;;;;;;6.33;5.83;;;7.90;99.90;;;;;;10457928;28;20551;-79
2021/12/14 08:04:38;;;;;;;6.60;6.00;;;7.90;99.90;;;;;;10428734;28;20221;-80
2021/12/14 08:09:48;;;;;;;7.50;6.70;;;7.90;99.90;;;;;;10430643;28;20217;-80
2021/12/14 08:15:00;;;;;;;7.97;7.27;;;7.80;99.90;;;;;;10477546;28;20288;-80
2021/12/14 08:20:06;;;;;;;8.33;7.53;;;7.80;99.90;;;;;;10458293;28;20225;-80
2021/12/14 08:25:10;;;;;;;7.27;6.67;;;7.90;99.90;;;;;;10479671;28;20233;-80
2021/12/14 08:30:15;;;;;;;7.17;6.50;;;8.00;99.90;;;;;;10461027;28;20708;-80
2021/12/14 08:35:19;;;;;;;7.93;7.23;;;8.00;99.90;;;;;;10462481;28;20217;-80
2021/12/14 08:40:25;;;;;;;8.60;7.80;;;8.10;99.90;;;;;;10460268;28;20240;-79
2021/12/14 08:45:33;;;;;;;11.03;8.27;;;8.20;99.90;;;;;;10467161;28;20197;-80
2021/12/14 08:50:47;;;;;;;8.70;7.90;;;8.40;99.90;;;;;;10446484;28;20217;-80
2021/12/14 08:55:51;;;;;;;9.47;8.57;;;8.50;99.90;;;;;;10482945;28;20291;-80
2021/12/14 09:00:57;;;;;;;8.60;7.80;;;8.60;99.90;;;;;;10486215;28;20228;-80
2021/12/14 09:06:03;;;;;;;8.93;8.03;;;8.60;99.90;;;;;;10470126;28;20197;-80
2021/12/14 09:11:08;;;;;;;8.93;8.03;;;8.70;99.90;;;;;;10505271;28;20692;-80
2021/12/14 09:16:14;;;;;;;7.80;7.10;;;8.70;99.90;;;;;;10484665;28;20193;-80
2021/12/14 09:21:21;;;;;;;8.60;7.87;;;8.80;99.90;;;;;;10502781;28;20258;-81
2021/12/14 09:26:27;;;;;;;9.63;8.53;;;8.90;99.90;;;;;;10479895;28;20244;-81
2021/12/14 09:31:33;;;;;;;9.73;8.73;;;8.90;99.90;;;;;;10443748;28;20213;-80
2021/12/14 09:36:37;;;;;;;9.73;8.83;;;8.90;99.90;;;;;;10455701;28;20280;-80
2021/12/14 09:41:42;;;;;;;9.13;8.33;;;9.10;99.90;;;;;;10448135;28;20263;-80
2021/12/14 09:46:44;;;;;;;8.43;7.70;;;9.10;99.90;;;;;;10465124;28;20251;-81
2021/12/14 09:51:53;;;;;;;8.80;7.77;;;9.20;99.90;;;;;;10443406;28;20213;-81
2021/12/14 09:56:59;;;;;;;9.40;8.50;;;9.20;99.90;;;;;;10441086;28;20299;-80
2021/12/14 10:02:06;;;;;;;9.77;8.80;;;9.30;99.90;;;;;;10425436;28;20220;-80
2021/12/14 10:07:10;;;;;;;8.97;8.10;;;9.40;99.90;;;;;;10443076;28;20211;-80
2021/12/14 10:12:41;;;;;;;7.50;6.90;;;9.40;99.90;;;;;;10442103;28;20586;-80
2021/12/14 10:17:43;;;;;;;7.47;6.77;;;9.50;99.90;;;;;;10443252;28;20380;-81
2021/12/14 10:22:51;;;;;;;8.00;7.27;;;9.50;99.90;;;;;;10439118;28;20213;-80
2021/12/14 10:27:54;;;;;;;7.10;6.50;;;9.60;99.90;;;;;;10475767;28;20246;-80
2021/12/14 10:32:57;;;;;;;7.27;6.67;;;9.60;99.90;;;;;;10482094;28;20200;-81
2021/12/14 10:38:17;;;;;;;6.63;6.13;;;9.70;99.90;;;;;;10477818;28;20197;-80
2021/12/14 10:43:21;;;;;;;8.73;7.90;;;9.80;99.90;;;;;;10463315;28;20212;-80
2021/12/14 10:48:26;;;;;;;9.60;8.80;;;9.80;99.90;;;;;;10485410;28;20220;-80
2021/12/14 10:53:30;;;;;;;7.90;7.20;;;9.80;99.90;;;;;;10499042;28;20189;-80
2021/12/14 10:58:32;;;;;;;8.53;7.77;;;9.80;99.90;;;;;;10437200;28;20213;-80
2021/12/14 11:03:42;;;;;;;8.30;7.50;;;9.80;99.90;;;;;;10421357;28;20752;-80
2021/12/14 11:08:58;;;;;;;8.33;7.53;;;9.70;99.90;;;;;;10437402;28;20693;-80
2021/12/14 11:14:02;;;;;;;8.30;7.60;;;9.80;99.90;;;;;;10437390;28;20185;-80
2021/12/14 11:19:06;;;;;;;6.80;6.20;;;9.70;99.90;;;;;;10420567;28;20300;-80
2021/12/14 11:24:10;;;;;;;8.53;7.83;;;9.70;99.90;;;;;;10460253;28;20224;-80
2021/12/14 11:29:16;;;;;;;9.47;8.47;;;9.70;99.90;;;;;;10496954;28;20281;-81
2021/12/14 11:34:31;;;;;;;9.23;8.43;;;9.50;99.90;;;;;;10460928;28;20279;-81
2021/12/14 11:39:38;;;;;;;9.67;8.77;;;9.50;99.90;;;;;;10529320;28;20215;-81
2021/12/14 11:44:45;;;;;;;11.43;8.93;;;9.50;99.90;;;;;;10492844;28;20196;-81
2021/12/14 11:49:51;;;;;;;9.43;8.63;;;9.50;99.90;;;;;;10502054;22;20234;-86
2021/12/14 11:54:55;;;;;;;10.03;9.07;;;9.70;99.90;;;;;;10405357;28;20194;-86
2021/12/14 12:00:01;;;;;;;10.90;9.80;;;9.70;99.90;;;;;;10403947;28;20308;-85
2021/12/14 12:05:15;;;;;;;9.43;8.63;;;9.70;99.90;;;;;;10385895;28;20285;-85
2021/12/14 12:10:18;;;;;;;11.33;10.33;;;9.80;99.90;;;;;;10402268;28;20206;-85
2021/12/14 12:15:23;;;;;;;14.83;11.37;;;9.90;99.90;;;;;;10389097;28;20194;-86
2021/12/14 12:20:29;;;;;;;12.03;10.93;;;9.90;99.90;;;;;;10398536;28;20229;-86
2021/12/14 12:25:36;;;;;;;11.50;10.30;;;9.90;99.90;;;;;;10403464;28;20276;-86
2021/12/14 12:30:44;;;;;;;12.20;11.00;;;9.80;99.90;;;;;;10402331;28;20555;-86
2021/12/14 12:35:51;;;;;;;13.00;11.60;;;9.80;99.90;;;;;;10386542;28;20193;-85
2021/12/14 12:40:59;;;;;;;11.90;10.23;;;9.80;99.90;;;;;;10387946;28;20232;-85
2021/12/14 12:46:12;;;;;;;12.47;11.23;;;9.70;99.90;;;;;;10388130;28;20202;-87
2021/12/14 12:51:50;;;;;;;12.07;10.87;;;9.70;99.90;;;;;;10386482;28;20245;-86
2021/12/14 13:02:27;;;;;;;12.53;11.23;;;9.70;99.90;;;;;;10546552;27;20619;-86
2021/12/14 13:07:33;;;;;;;12.33;11.03;;;9.80;99.90;;;;;;10497924;28;20218;-85
2021/12/14 13:12:52;;;;;;;14.83;11.50;;;9.80;99.90;;;;;;10492951;28;20759;-86
2021/12/14 13:18:24;;;;;;;12.00;10.90;;;9.80;99.90;;;;;;10469999;28;20208;-85
2021/12/14 13:23:51;;;;;;;14.40;12.40;;;9.70;99.90;;;;;;10482673;28;20279;-85
2021/12/14 13:28:59;;;;;;;11.83;10.83;;;9.70;99.90;;;;;;10481975;28;20360;-85
2021/12/14 13:34:06;;;;;;;12.97;11.70;;;9.80;99.90;;;;;;10492019;28;20193;-85
2021/12/14 13:39:13;;;;;;;13.67;12.37;;;9.80;99.90;;;;;;10483781;28;20240;-86
2021/12/14 13:44:18;;;;;;;14.20;12.77;;;9.80;99.90;;;;;;10490847;28;20211;-85
2021/12/14 13:49:21;;;;;;;11.70;10.70;;;9.80;99.90;;;;;;10509579;28;20587;-85
2021/12/14 13:54:34;;;;;;;12.70;11.50;;;9.80;99.90;;;;;;10474787;28;20193;-85
2021/12/14 13:59:36;;;;;;;13.87;12.57;;;9.80;99.90;;;;;;10508099;28;20212;-85
2021/12/14 14:04:39;;;;;;;13.03;11.73;;;9.70;99.90;;;;;;10486460;28;20277;-85
2021/12/14 14:09:42;;;;;;;12.40;11.27;;;9.70;99.90;;;;;;10476149;28;20248;-85
2021/12/14 14:15:16;;;;;;;12.27;11.17;;;9.70;99.90;;;;;;10453011;28;20720;-85
2021/12/14 14:20:22;;;;;;;11.93;10.93;;;9.80;99.90;;;;;;10458332;28;20221;-86
2021/12/14 14:25:26;;;;;;;12.60;11.50;;;9.80;99.90;;;;;;10440139;28;20209;-86
2021/12/14 14:30:45;;;;;;;13.43;12.10;;;9.80;99.90;;;;;;10465247;28;20595;-86
2021/12/14 14:35:50;;;;;;;13.30;12.07;;;9.80;99.90;;;;;;10495508;28;20274;-86
2021/12/14 14:40:54;;;;;;;15.77;14.17;;;9.80;99.90;;;;;;10494458;28;20277;-85
2021/12/14 14:45:57;;;;;;;14.23;12.73;;;9.80;99.90;;;;;;10468399;28;20208;-85
2021/12/14 14:50:59;;;;;;;15.70;14.10;;;9.70;99.90;;;;;;10454226;28;20213;-86
2021/12/14 14:56:03;;;;;;;17.57;13.83;;;9.70;99.90;;;;;;10456040;28;20200;-86
2021/12/14 15:01:11;;;;;;;15.97;14.47;;;9.70;99.90;;;;;;10445545;28;20244;-85
2021/12/14 15:06:24;;;;;;;15.77;14.17;;;9.70;99.90;;;;;;10452990;28;20279;-85
2021/12/14 15:11:32;;;;;;;15.20;13.70;;;9.70;99.90;;;;;;10458165;28;20646;-84
2021/12/14 15:16:52;;;;;;;16.40;14.80;;;9.70;99.90;;;;;;10458998;28;20220;-85
2021/12/14 15:22:07;;;;;;;15.70;14.07;;;9.70;99.90;;;;;;10458029;28;20257;-85
2021/12/14 15:27:34;;;;;;;15.40;13.83;;;9.60;99.90;;;;;;10448226;28;20200;-85
2021/12/14 15:32:37;;;;;;;16.17;14.40;;;9.60;99.90;;;;;;10467898;28;20237;-85
2021/12/14 15:37:43;;;;;;;13.93;12.60;;;9.50;99.90;;;;;;10467069;28;20199;-85
2021/12/14 15:42:49;;;;;;;15.30;13.70;;;9.50;99.90;;;;;;10439930;28;20244;-85
2021/12/14 15:48:05;;;;;;;15.70;14.17;;;9.40;99.90;;;;;;10457110;28;20269;-84
2021/12/14 15:53:23;;;;;;;16.53;14.83;;;9.50;99.90;;;;;;10457531;28;20714;-85
2021/12/14 15:58:29;;;;;;;14.00;12.60;;;9.50;99.90;;;;;;10456297;28;20222;-85
2021/12/14 16:03:32;;;;;;;14.43;12.93;;;9.40;99.90;;;;;;10458071;28;20220;-84
2021/12/14 16:08:38;;;;;;;16.33;13.60;;;9.40;99.90;;;;;;10437270;28;20260;-85
2021/12/14 16:19:01;;;;;;;15.97;12.90;;;9.30;99.90;;;;;;10455558;28;20236;-85
2021/12/14 16:24:05;;;;;;;14.03;11.80;;;9.30;99.90;;;;;;10438257;28;20227;-84
2021/12/14 16:29:09;;;;;;;12.53;11.23;;;9.30;99.90;;;;;;10455453;28;20221;-85
2021/12/14 16:34:13;;;;;;;14.77;13.33;;;9.30;99.90;;;;;;10437245;28;20646;-84
2021/12/14 16:39:20;;;;;;;16.77;13.50;;;9.30;99.90;;;;;;10433997;28;20241;-85
2021/12/14 16:44:30;;;;;;;14.93;13.00;;;9.30;99.90;;;;;;10455610;28;20193;-85
2021/12/14 16:49:34;;;;;;;15.67;14.07;;;9.30;99.90;;;;;;10454078;28;20219;-85
2021/12/14 16:54:37;;;;;;;16.90;13.90;;;9.30;99.90;;;;;;10452023;28;20661;-85
2021/12/14 16:59:43;;;;;;;14.50;13.00;;;9.30;99.90;;;;;;10438600;28;20221;-84
2021/12/14 17:04:47;;;;;;;14.13;12.83;;;9.20;99.90;;;;;;10454481;28;20201;-86
2021/12/14 17:09:51;;;;;;;14.60;13.10;;;9.20;99.90;;;;;;10435013;28;20304;-85
2021/12/14 17:14:59;;;;;;;13.30;12.10;;;9.30;99.90;;;;;;10450300;28;20224;-84
2021/12/14 17:20:06;;;;;;;14.27;12.80;;;9.30;99.90;;;;;;10455043;28;20420;-85
2021/12/14 17:25:13;;;;;;;13.43;12.13;;;9.30;99.90;;;;;;10437526;28;20251;-85
2021/12/14 17:30:28;;;;;;;13.80;12.40;;;9.30;99.90;;;;;;10467763;28;20220;-85
2021/12/14 17:35:34;;;;;;;14.23;12.90;;;9.30;99.90;;;;;;10459777;28;20192;-85
2021/12/14 17:40:39;;;;;;;13.37;12.07;;;9.30;99.90;;;;;;10440763;28;20319;-86
2021/12/14 17:45:46;;;;;;;13.17;11.83;;;9.40;99.90;;;;;;10454971;28;20596;-85
2021/12/14 17:50:51;;;;;;;13.50;12.13;;;9.40;99.90;;;;;;10444719;28;20300;-86
2021/12/14 17:55:56;;;;;;;14.60;12.70;;;9.40;99.90;;;;;;10460934;28;20630;-86
2021/12/14 18:01:03;;;;;;;14.13;12.83;;;9.40;99.90;;;;;;10459693;28;20770;-85
2021/12/14 18:06:09;;;;;;;14.47;13.10;;;9.40;99.90;;;;;;10460095;28;20220;-85
2021/12/14 18:11:14;;;;;;;14.90;13.50;;;9.40;99.90;;;;;;10458044;28;20240;-86
2021/12/14 18:16:22;;;;;;;15.13;13.63;;;9.40;99.90;;;;;;10458011;28;20263;-85
2021/12/14 18:21:25;;;;;;;13.83;12.43;;;9.40;99.90;;;;;;10457214;28;20232;-86
2021/12/14 18:26:36;;;;;;;13.00;11.70;;;9.50;99.90;;;;;;10458168;28;20197;-86
2021/12/14 18:31:43;;;;;;;15.07;13.47;;;9.50;99.90;;;;;;10459431;28;20213;-84
2021/12/14 18:36:54;;;;;;;14.90;13.40;;;9.50;99.90;;;;;;10459043;28;20189;-84
2021/12/14 18:42:07;;;;;;;14.60;12.97;;;9.40;99.90;;;;;;10441438;28;20229;-85
2021/12/14 18:47:18;;;;;;;14.70;13.23;;;9.40;99.90;;;;;;10456578;28;20201;-85
2021/12/14 18:52:23;;;;;;;15.60;13.97;;;9.40;99.90;;;;;;10456507;28;20691;-85
2021/12/14 18:57:26;;;;;;;16.70;14.63;;;9.40;99.90;;;;;;10466481;28;20649;-85
2021/12/14 19:02:33;;;;;;;16.03;14.43;;;9.40;99.90;;;;;;10456601;28;20267;-85
2021/12/14 19:07:43;;;;;;;17.27;15.57;;;9.30;99.90;;;;;;10439519;28;20200;-85
2021/12/14 19:12:51;;;;;;;16.83;15.20;;;9.40;99.90;;;;;;10439305;28;20223;-85
2021/12/14 19:17:58;;;;;;;17.50;15.70;;;9.30;99.90;;;;;;10455256;28;20217;-85
2021/12/14 19:23:00;;;;;;;19.23;17.30;;;9.30;99.90;;;;;;10455233;28;20213;-85
2021/12/14 19:28:09;;;;;;;17.20;15.60;;;9.30;99.90;;;;;;10432752;28;20622;-85
2021/12/14 19:33:12;;;;;;;21.80;19.53;;;9.30;99.90;;;;;;10396966;28;20693;-86
2021/12/14 19:38:20;;;;;;;17.70;15.80;;;9.20;99.90;;;;;;10397317;28;20764;-86
2021/12/14 19:43:24;;;;;;;18.30;16.47;;;9.20;99.90;;;;;;10415382;28;20214;-86
2021/12/14 19:48:31;;;;;;;17.70;16.00;;;9.20;99.90;;;;;;10430757;28;20717;-85
2021/12/14 19:53:36;;;;;;;19.93;17.40;;;9.20;99.90;;;;;;10398433;28;20285;-84
2021/12/14 19:58:41;;;;;;;19.60;17.50;;;9.20;99.90;;;;;;10416803;28;20229;-84
2021/12/14 20:04:21;;;;;;;19.30;17.30;;;9.20;99.90;;;;;;10472399;28;20186;-84
2021/12/14 20:09:42;;;;;;;18.23;16.47;;;9.20;99.90;;;;;;10473137;28;20205;-85
2021/12/14 20:14:55;;;;;;;20.40;18.33;;;9.30;99.90;;;;;;10456333;28;20645;-84
2021/12/14 20:20:00;;;;;;;18.50;16.60;;;9.30;99.90;;;;;;10457829;28;20564;-84
2021/12/14 20:25:02;;;;;;;20.67;18.40;;;9.30;99.90;;;;;;10459695;28;20196;-85
2021/12/14 20:30:09;;;;;;;20.80;18.70;;;9.30;99.90;;;;;;10490896;28;20213;-85
2021/12/14 20:35:19;;;;;;;21.93;19.67;;;9.30;99.90;;;;;;10508657;28;20208;-84
2021/12/14 20:40:29;;;;;;;21.20;19.00;;;9.30;99.90;;;;;;10499651;28;20212;-85
2021/12/14 20:45:52;;;;;;;23.53;21.10;;;9.30;99.90;;;;;;10476811;28;20197;-85
2021/12/14 20:51:03;;;;;;;21.77;19.67;;;9.30;99.90;;;;;;10444394;28;20255;-85
2021/12/14 20:56:10;;;;;;;22.53;19.93;;;9.30;99.90;;;;;;10466464;28;20243;-85
2021/12/14 21:01:13;;;;;;;21.47;19.17;;;9.30;99.90;;;;;;10470478;28;20760;-85
2021/12/14 21:06:23;;;;;;;21.33;18.93;;;9.30;99.90;;;;;;10461055;28;20778;-85
2021/12/14 21:11:28;;;;;;;21.33;19.10;;;9.30;99.90;;;;;;10456649;28;20263;-85
2021/12/14 21:16:37;;;;;;;20.53;18.43;;;9.30;99.90;;;;;;10454252;28;20216;-85
2021/12/14 21:21:42;;;;;;;23.00;20.23;;;9.30;99.90;;;;;;10465948;28;20217;-85
2021/12/14 21:26:45;;;;;;;21.53;19.33;;;9.20;99.90;;;;;;10466032;28;20228;-84
2021/12/14 21:31:48;;;;;;;23.33;20.13;;;9.20;99.90;;;;;;10478799;28;20251;-85
2021/12/14 21:36:56;;;;;;;24.90;20.93;;;9.20;99.90;;;;;;10464021;28;20200;-84
2021/12/14 21:42:03;;;;;;;23.87;20.97;;;9.20;99.90;;;;;;10442087;28;20213;-85
2021/12/14 21:47:10;;;;;;;27.13;21.20;;;9.20;99.90;;;;;;10448018;28;20190;-85
2021/12/14 21:52:16;;;;;;;23.07;19.80;;;9.20;99.90;;;;;;10461558;28;20218;-85
2021/12/14 21:57:42;;;;;;;23.57;21.07;;;9.20;99.90;;;;;;10459494;28;20248;-85
2021/12/14 22:02:46;;;;;;;24.47;21.77;;;9.20;99.90;;;;;;10461975;28;20224;-85
2021/12/14 22:07:59;;;;;;;23.87;20.63;;;9.20;99.90;;;;;;10476019;28;20200;-85
2021/12/14 22:13:13;;;;;;;23.03;20.20;;;9.20;99.90;;;;;;10468365;28;20240;-83
2021/12/14 22:18:26;;;;;;;24.47;21.00;;;9.20;99.90;;;;;;10453716;28;20284;-84
2021/12/14 22:23:41;;;;;;;24.63;22.10;;;9.10;99.90;;;;;;10461713;28;20212;-84
2021/12/14 22:28:43;;;;;;;24.70;22.10;;;9.00;99.90;;;;;;10493110;23;20676;-85
2021/12/14 22:33:48;;;;;;;23.80;20.80;;;9.00;99.90;;;;;;10478193;28;20673;-84
2021/12/14 22:39:23;;;;;;;24.67;22.03;;;8.90;99.90;;;;;;10485230;28;20212;-85
2021/12/14 22:44:45;;;;;;;30.70;23.87;;;9.00;99.90;;;;;;10412058;28;20200;-84
2021/12/14 22:49:48;;;;;;;25.73;22.90;;;9.00;99.90;;;;;;10468880;28;20247;-85
2021/12/14 22:54:55;;;;;;;33.27;25.07;;;9.00;99.90;;;;;;10465754;28;20254;-84
2021/12/14 22:59:58;;;;;;;27.10;24.33;;;9.10;99.90;;;;;;10466594;28;20221;-84
2021/12/14 23:05:01;;;;;;;27.57;24.57;;;9.10;99.90;;;;;;10471105;28;20710;-85
2021/12/14 23:10:20;;;;;;;26.47;23.53;;;9.10;99.90;;;;;;10486995;28;20208;-86
2021/12/14 23:15:29;;;;;;;24.20;21.60;;;9.10;99.90;;;;;;10494205;28;20212;-86
2021/12/14 23:26:59;;;;;;;28.73;24.17;;;9.10;99.90;;;;;;10472562;28;20834;-86
2021/12/14 23:32:36;;;;;;;28.73;25.63;;;9.00;99.90;;;;;;10399611;28;20224;-86
2021/12/14 23:38:35;;;;;;;;;;;;;;;;;;;;;
2021/12/14 23:49:40;;;;;;;;;;;;;;;;;;;;;
